sensor_id;sensor_type;location;lat;lon;timestamp;pressure;altitude;pressure_sealevel;temperature
64947;BMP280;51469;52.150;4.682;2022-10-16T00:01:46;101067.94;;;20.69
64947;BMP280;51469;52.150;4.682;2022-10-16T00:04:12;101069.59;;;20.66
64947;BMP280;51469;52.150;4.682;2022-10-16T00:06:38;101075.19;;;20.66
64947;BMP280;51469;52.150;4.682;2022-10-16T00:09:05;101077.19;;;20.66
64947;BMP280;51469;52.150;4.682;2022-10-16T00:11:34;101068.81;;;20.66
64947;BMP280;51469;52.150;4.682;2022-10-16T00:14:04;101075.41;;;20.72
64947;BMP280;51469;52.150;4.682;2022-10-16T00:16:31;101076.72;;;20.67
64947;BMP280;51469;52.150;4.682;2022-10-16T00:18:57;101072.72;;;20.68
64947;BMP280;51469;52.150;4.682;2022-10-16T00:21:28;101073.53;;;20.69
64947;BMP280;51469;52.150;4.682;2022-10-16T00:24:00;101071.28;;;20.64
64947;BMP280;51469;52.150;4.682;2022-10-16T00:26:31;101069.28;;;20.77
64947;BMP280;51469;52.150;4.682;2022-10-16T00:28:57;101066.16;;;20.75
64947;BMP280;51469;52.150;4.682;2022-10-16T00:31:23;101063.72;;;20.77
64947;BMP280;51469;52.150;4.682;2022-10-16T00:33:49;101065.69;;;20.64
64947;BMP280;51469;52.150;4.682;2022-10-16T00:36:17;101071.06;;;20.71
64947;BMP280;51469;52.150;4.682;2022-10-16T00:38:43;101056.78;;;20.69
64947;BMP280;51469;52.150;4.682;2022-10-16T00:41:12;101062.38;;;20.69
64947;BMP280;51469;52.150;4.682;2022-10-16T00:43:54;101060.44;;;20.66
64947;BMP280;51469;52.150;4.682;2022-10-16T00:46:37;101056.78;;;20.69
64947;BMP280;51469;52.150;4.682;2022-10-16T00:49:14;101050.72;;;20.58
64947;BMP280;51469;52.150;4.682;2022-10-16T00:54:21;101054.94;;;20.50
64947;BMP280;51469;52.150;4.682;2022-10-16T00:56:47;101058.56;;;20.63
64947;BMP280;51469;52.150;4.682;2022-10-16T00:59:20;101063.22;;;20.66
64947;BMP280;51469;52.150;4.682;2022-10-16T01:01:46;101059.25;;;20.67
64947;BMP280;51469;52.150;4.682;2022-10-16T01:04:11;101064.38;;;20.81
64947;BMP280;51469;52.150;4.682;2022-10-16T01:06:49;101058.03;;;20.80
64947;BMP280;51469;52.150;4.682;2022-10-16T01:09:21;101080.44;;;20.77
64947;BMP280;51469;52.150;4.682;2022-10-16T01:11:52;101069.94;;;20.81
64947;BMP280;51469;52.150;4.682;2022-10-16T01:17:18;101072.13;;;20.61
64947;BMP280;51469;52.150;4.682;2022-10-16T01:20:07;101074.19;;;20.73
64947;BMP280;51469;52.150;4.682;2022-10-16T01:25:12;101074.28;;;20.69
64947;BMP280;51469;52.150;4.682;2022-10-16T01:27:42;101084.78;;;20.65
64947;BMP280;51469;52.150;4.682;2022-10-16T01:30:13;101076.84;;;20.64
64947;BMP280;51469;52.150;4.682;2022-10-16T01:33:03;101082.88;;;20.62
64947;BMP280;51469;52.150;4.682;2022-10-16T01:35:39;101072.38;;;20.54
64947;BMP280;51469;52.150;4.682;2022-10-16T01:38:36;101064.75;;;20.42
64947;BMP280;51469;52.150;4.682;2022-10-16T01:41:16;101069.06;;;20.30
64947;BMP280;51469;52.150;4.682;2022-10-16T01:43:48;101091.59;;;20.20
64947;BMP280;51469;52.150;4.682;2022-10-16T01:46:17;101093.31;;;20.17
64947;BMP280;51469;52.150;4.682;2022-10-16T01:48:43;101091.84;;;20.13
64947;BMP280;51469;52.150;4.682;2022-10-16T01:51:12;101096.50;;;20.16
64947;BMP280;51469;52.150;4.682;2022-10-16T01:53:39;101077.53;;;20.11
64947;BMP280;51469;52.150;4.682;2022-10-16T01:56:11;101087.78;;;20.14
64947;BMP280;51469;52.150;4.682;2022-10-16T01:58:42;101088.34;;;20.09
64947;BMP280;51469;52.150;4.682;2022-10-16T02:01:11;101084.66;;;20.12
64947;BMP280;51469;52.150;4.682;2022-10-16T02:03:40;101087.78;;;20.14
64947;BMP280;51469;52.150;4.682;2022-10-16T02:06:07;101092.97;;;19.99
64947;BMP280;51469;52.150;4.682;2022-10-16T02:08:33;101092.38;;;19.92
64947;BMP280;51469;52.150;4.682;2022-10-16T02:10:59;101104.22;;;19.96
64947;BMP280;51469;52.150;4.682;2022-10-16T02:13:30;101101.25;;;19.87
64947;BMP280;51469;52.150;4.682;2022-10-16T02:15:57;101111.53;;;19.90
64947;BMP280;51469;52.150;4.682;2022-10-16T02:18:23;101092.38;;;19.76
64947;BMP280;51469;52.150;4.682;2022-10-16T02:21:00;101108.31;;;19.91
64947;BMP280;51469;52.150;4.682;2022-10-16T02:23:41;101106.47;;;20.01
64947;BMP280;51469;52.150;4.682;2022-10-16T02:26:13;101098.97;;;19.82
64947;BMP280;51469;52.150;4.682;2022-10-16T02:28:49;101105.34;;;19.82
64947;BMP280;51469;52.150;4.682;2022-10-16T02:31:20;101095.78;;;19.83
64947;BMP280;51469;52.150;4.682;2022-10-16T02:33:50;101101.44;;;19.80
64947;BMP280;51469;52.150;4.682;2022-10-16T02:36:17;101106.47;;;19.85
64947;BMP280;51469;52.150;4.682;2022-10-16T02:38:42;101111.59;;;19.86
64947;BMP280;51469;52.150;4.682;2022-10-16T02:41:08;101109.16;;;19.88
64947;BMP280;51469;52.150;4.682;2022-10-16T02:43:34;101111.69;;;19.83
64947;BMP280;51469;52.150;4.682;2022-10-16T02:45:59;101110.22;;;19.78
64947;BMP280;51469;52.150;4.682;2022-10-16T02:48:25;101120.22;;;19.92
64947;BMP280;51469;52.150;4.682;2022-10-16T02:50:50;101112.59;;;19.80
64947;BMP280;51469;52.150;4.682;2022-10-16T02:53:16;101113.31;;;19.80
64947;BMP280;51469;52.150;4.682;2022-10-16T02:55:41;101112.59;;;19.80
64947;BMP280;51469;52.150;4.682;2022-10-16T02:58:07;101108.81;;;19.70
64947;BMP280;51469;52.150;4.682;2022-10-16T03:00:32;101116.03;;;19.68
64947;BMP280;51469;52.150;4.682;2022-10-16T03:02:57;101116.19;;;19.77
64947;BMP280;51469;52.150;4.682;2022-10-16T03:05:23;101109.59;;;19.71
64947;BMP280;51469;52.150;4.682;2022-10-16T03:07:54;101111.50;;;19.58
64947;BMP280;51469;52.150;4.682;2022-10-16T03:10:19;101109.97;;;19.57
64947;BMP280;51469;52.150;4.682;2022-10-16T03:12:47;101116.38;;;19.54
64947;BMP280;51469;52.150;4.682;2022-10-16T03:15:13;101127.84;;;19.40
64947;BMP280;51469;52.150;4.682;2022-10-16T03:17:38;101130.97;;;19.42
64947;BMP280;51469;52.150;4.682;2022-10-16T03:20:04;101131.41;;;19.40
64947;BMP280;51469;52.150;4.682;2022-10-16T03:22:30;101124.00;;;19.34
64947;BMP280;51469;52.150;4.682;2022-10-16T03:24:55;101127.44;;;19.22
64947;BMP280;51469;52.150;4.682;2022-10-16T03:27:21;101126.34;;;19.35
64947;BMP280;51469;52.150;4.682;2022-10-16T03:29:47;101130.25;;;19.38
64947;BMP280;51469;52.150;4.682;2022-10-16T03:32:12;101141.94;;;19.49
64947;BMP280;51469;52.150;4.682;2022-10-16T03:34:37;101145.41;;;19.37
64947;BMP280;51469;52.150;4.682;2022-10-16T03:37:03;101142.66;;;19.53
64947;BMP280;51469;52.150;4.682;2022-10-16T03:39:28;101145.06;;;19.51
64947;BMP280;51469;52.150;4.682;2022-10-16T03:41:54;101151.41;;;19.51
64947;BMP280;51469;52.150;4.682;2022-10-16T03:44:19;101140.75;;;19.50
64947;BMP280;51469;52.150;4.682;2022-10-16T03:46:45;101146.66;;;19.52
64947;BMP280;51469;52.150;4.682;2022-10-16T03:49:10;101145.63;;;19.42
64947;BMP280;51469;52.150;4.682;2022-10-16T03:51:35;101145.94;;;19.48
64947;BMP280;51469;52.150;4.682;2022-10-16T03:54:01;101146.13;;;19.57
64947;BMP280;51469;52.150;4.682;2022-10-16T03:56:26;101148.66;;;19.67
64947;BMP280;51469;52.150;4.682;2022-10-16T03:58:51;101151.00;;;19.69
64947;BMP280;51469;52.150;4.682;2022-10-16T04:01:17;101151.19;;;19.78
64947;BMP280;51469;52.150;4.682;2022-10-16T04:03:42;101159.84;;;19.64
64947;BMP280;51469;52.150;4.682;2022-10-16T04:06:07;101158.53;;;19.52
64947;BMP280;51469;52.150;4.682;2022-10-16T04:08:33;101167.91;;;19.62
64947;BMP280;51469;52.150;4.682;2022-10-16T04:11:01;101169.22;;;19.73
64947;BMP280;51469;52.150;4.682;2022-10-16T04:13:26;101174.16;;;19.66
64947;BMP280;51469;52.150;4.682;2022-10-16T04:15:52;101178.16;;;19.65
64947;BMP280;51469;52.150;4.682;2022-10-16T04:18:17;101188.78;;;19.70
64947;BMP280;51469;52.150;4.682;2022-10-16T04:20:42;101186.22;;;19.59
64947;BMP280;51469;52.150;4.682;2022-10-16T04:23:08;101192.56;;;19.60
64947;BMP280;51469;52.150;4.682;2022-10-16T04:25:33;101190.06;;;19.65
64947;BMP280;51469;52.150;4.682;2022-10-16T04:27:58;101198.78;;;19.67
64947;BMP280;51469;52.150;4.682;2022-10-16T04:30:24;101195.41;;;19.76
64947;BMP280;51469;52.150;4.682;2022-10-16T04:32:50;101192.97;;;19.78
64947;BMP280;51469;52.150;4.682;2022-10-16T04:35:17;101195.31;;;19.79
64947;BMP280;51469;52.150;4.682;2022-10-16T04:37:42;101208.44;;;19.79
64947;BMP280;51469;52.150;4.682;2022-10-16T04:40:08;101209.66;;;19.78
64947;BMP280;51469;52.150;4.682;2022-10-16T04:42:33;101218.03;;;19.78
64947;BMP280;51469;52.150;4.682;2022-10-16T04:44:59;101218.63;;;19.85
64947;BMP280;51469;52.150;4.682;2022-10-16T04:47:24;101220.28;;;19.99
64947;BMP280;51469;52.150;4.682;2022-10-16T04:49:50;101232.31;;;19.96
64947;BMP280;51469;52.150;4.682;2022-10-16T04:52:15;101239.44;;;19.97
64947;BMP280;51469;52.150;4.682;2022-10-16T04:54:41;101233.94;;;19.93
64947;BMP280;51469;52.150;4.682;2022-10-16T04:57:06;101238.19;;;19.82
64947;BMP280;51469;52.150;4.682;2022-10-16T04:59:32;101244.31;;;19.93
64947;BMP280;51469;52.150;4.682;2022-10-16T05:01:57;101253.81;;;19.95
64947;BMP280;51469;52.150;4.682;2022-10-16T05:04:22;101252.50;;;20.00
64947;BMP280;51469;52.150;4.682;2022-10-16T05:06:48;101268.53;;;19.96
64947;BMP280;51469;52.150;4.682;2022-10-16T05:09:14;101256.00;;;19.88
64947;BMP280;51469;52.150;4.682;2022-10-16T05:11:39;101273.38;;;19.92
64947;BMP280;51469;52.150;4.682;2022-10-16T05:14:05;101263.97;;;19.86
64947;BMP280;51469;52.150;4.682;2022-10-16T05:16:30;101254.41;;;19.87
64947;BMP280;51469;52.150;4.682;2022-10-16T05:18:56;101251.66;;;19.32
64947;BMP280;51469;52.150;4.682;2022-10-16T05:21:21;101267.59;;;19.47
64947;BMP280;51469;52.150;4.682;2022-10-16T05:23:47;101276.72;;;19.48
64947;BMP280;51469;52.150;4.682;2022-10-16T05:26:13;101279.66;;;19.41
64947;BMP280;51469;52.150;4.682;2022-10-16T05:28:38;101275.47;;;19.33
64947;BMP280;51469;52.150;4.682;2022-10-16T05:31:07;101295.94;;;19.23
64947;BMP280;51469;52.150;4.682;2022-10-16T05:33:33;101295.34;;;19.12
64947;BMP280;51469;52.150;4.682;2022-10-16T05:36:04;101294.50;;;19.15
64947;BMP280;51469;52.150;4.682;2022-10-16T05:38:30;101305.50;;;19.22
64947;BMP280;51469;52.150;4.682;2022-10-16T05:40:55;101311.06;;;19.22
64947;BMP280;51469;52.150;4.682;2022-10-16T05:43:22;101310.19;;;19.25
64947;BMP280;51469;52.150;4.682;2022-10-16T05:45:56;101309.44;;;19.21
64947;BMP280;51469;52.150;4.682;2022-10-16T05:48:22;101309.63;;;19.14
64947;BMP280;51469;52.150;4.682;2022-10-16T05:50:48;101296.97;;;19.09
64947;BMP280;51469;52.150;4.682;2022-10-16T05:53:13;101309.63;;;19.14
64947;BMP280;51469;52.150;4.682;2022-10-16T05:55:39;101301.69;;;19.12
64947;BMP280;51469;52.150;4.682;2022-10-16T05:58:04;101309.72;;;19.07
64947;BMP280;51469;52.150;4.682;2022-10-16T06:00:29;101307.31;;;19.09
64947;BMP280;51469;52.150;4.682;2022-10-16T06:02:54;101289.28;;;18.97
64947;BMP280;51469;52.150;4.682;2022-10-16T06:05:20;101306.19;;;19.06
64947;BMP280;51469;52.150;4.682;2022-10-16T06:07:45;101308.09;;;19.09
64947;BMP280;51469;52.150;4.682;2022-10-16T06:10:10;101309.97;;;19.16
64947;BMP280;51469;52.150;4.682;2022-10-16T06:12:36;101316.09;;;19.07
64947;BMP280;51469;52.150;4.682;2022-10-16T06:15:01;101328.72;;;19.12
64947;BMP280;51469;52.150;4.682;2022-10-16T06:17:27;101320.56;;;19.01
64947;BMP280;51469;52.150;4.682;2022-10-16T06:19:52;101329.38;;;19.19
64947;BMP280;51469;52.150;4.682;2022-10-16T06:22:17;101326.53;;;19.00
64947;BMP280;51469;52.150;4.682;2022-10-16T06:24:43;101327.66;;;19.06
64947;BMP280;51469;52.150;4.682;2022-10-16T06:27:08;101324.16;;;19.02
64947;BMP280;51469;52.150;4.682;2022-10-16T06:29:33;101324.16;;;19.02
64947;BMP280;51469;52.150;4.682;2022-10-16T06:31:59;101335.13;;;19.09
64947;BMP280;51469;52.150;4.682;2022-10-16T06:34:24;101333.44;;;19.15
64947;BMP280;51469;52.150;4.682;2022-10-16T06:36:50;101338.19;;;19.14
64947;BMP280;51469;52.150;4.682;2022-10-16T06:39:15;101341.66;;;19.22
64947;BMP280;51469;52.150;4.682;2022-10-16T06:41:40;101347.75;;;19.13
64947;BMP280;51469;52.150;4.682;2022-10-16T06:44:06;101346.13;;;19.16
64947;BMP280;51469;52.150;4.682;2022-10-16T06:46:33;101355.56;;;19.22
64947;BMP280;51469;52.150;4.682;2022-10-16T06:48:59;101348.28;;;19.28
64947;BMP280;51469;52.150;4.682;2022-10-16T06:51:24;101365.59;;;19.39
64947;BMP280;51469;52.150;4.682;2022-10-16T06:53:55;101360.72;;;19.43
64947;BMP280;51469;52.150;4.682;2022-10-16T06:56:26;101368.97;;;19.50
64947;BMP280;51469;52.150;4.682;2022-10-16T06:58:52;101375.06;;;19.41
64947;BMP280;51469;52.150;4.682;2022-10-16T07:01:21;101376.63;;;19.42
64947;BMP280;51469;52.150;4.682;2022-10-16T07:03:47;101379.63;;;19.32
64947;BMP280;51469;52.150;4.682;2022-10-16T07:06:18;101378.28;;;19.40
64947;BMP280;51469;52.150;4.682;2022-10-16T07:08:45;101390.97;;;19.41
64947;BMP280;51469;52.150;4.682;2022-10-16T07:11:16;101395.59;;;19.28
64947;BMP280;51469;52.150;4.682;2022-10-16T07:13:43;101399.09;;;19.32
64947;BMP280;51469;52.150;4.682;2022-10-16T07:16:11;101408.72;;;19.27
64947;BMP280;51469;52.150;4.682;2022-10-16T07:18:37;101409.03;;;19.10
64947;BMP280;51469;52.150;4.682;2022-10-16T07:21:23;101408.97;;;19.13
64947;BMP280;51469;52.150;4.682;2022-10-16T07:23:51;101423.50;;;19.21
64947;BMP280;51469;52.150;4.682;2022-10-16T07:26:18;101426.28;;;19.21
64947;BMP280;51469;52.150;4.682;2022-10-16T07:28:43;101442.03;;;19.31
64947;BMP280;51469;52.150;4.682;2022-10-16T07:31:12;101445.69;;;19.28
64947;BMP280;51469;52.150;4.682;2022-10-16T07:33:39;101459.47;;;19.35
64947;BMP280;51469;52.150;4.682;2022-10-16T07:36:05;101461.75;;;19.40
64947;BMP280;51469;52.150;4.682;2022-10-16T07:38:31;101456.91;;;19.44
64947;BMP280;51469;52.150;4.682;2022-10-16T07:40:57;101466.38;;;19.50
64947;BMP280;51469;52.150;4.682;2022-10-16T07:43:24;101464.16;;;19.38
64947;BMP280;51469;52.150;4.682;2022-10-16T07:45:50;101473.47;;;19.51
64947;BMP280;51469;52.150;4.682;2022-10-16T07:48:16;101476.63;;;19.53
64947;BMP280;51469;52.150;4.682;2022-10-16T07:50:42;101488.78;;;19.62
64947;BMP280;51469;52.150;4.682;2022-10-16T07:53:07;101477.53;;;19.69
64947;BMP280;51469;52.150;4.682;2022-10-16T07:55:33;101484.19;;;19.75
64947;BMP280;51469;52.150;4.682;2022-10-16T07:57:58;101487.50;;;19.90
64947;BMP280;51469;52.150;4.682;2022-10-16T08:02:59;101491.69;;;19.98
64947;BMP280;51469;52.150;4.682;2022-10-16T08:05:26;101511.56;;;20.19
64947;BMP280;51469;52.150;4.682;2022-10-16T08:07:52;101517.56;;;20.18
64947;BMP280;51469;52.150;4.682;2022-10-16T08:10:20;101520.00;;;20.16
64947;BMP280;51469;52.150;4.682;2022-10-16T08:12:46;101519.63;;;20.14
64947;BMP280;51469;52.150;4.682;2022-10-16T08:15:11;101521.28;;;20.31
64947;BMP280;51469;52.150;4.682;2022-10-16T08:17:37;101518.16;;;20.29
64947;BMP280;51469;52.150;4.682;2022-10-16T08:20:02;101512.41;;;20.36
64947;BMP280;51469;52.150;4.682;2022-10-16T08:22:28;101528.84;;;20.50
64947;BMP280;51469;52.150;4.682;2022-10-16T08:24:53;101519.06;;;20.42
64947;BMP280;51469;52.150;4.682;2022-10-16T08:27:18;101523.81;;;20.61
64947;BMP280;51469;52.150;4.682;2022-10-16T08:29:44;101530.25;;;20.58
64947;BMP280;51469;52.150;4.682;2022-10-16T08:32:09;101535.75;;;20.61
64947;BMP280;51469;52.150;4.682;2022-10-16T08:34:34;101540.94;;;20.79
64947;BMP280;51469;52.150;4.682;2022-10-16T08:37:00;101542.88;;;20.82
64947;BMP280;51469;52.150;4.682;2022-10-16T08:39:25;101550.75;;;21.03
64947;BMP280;51469;52.150;4.682;2022-10-16T08:44:28;101571.59;;;20.98
64947;BMP280;51469;52.150;4.682;2022-10-16T08:47:19;101560.53;;;21.11
64947;BMP280;51469;52.150;4.682;2022-10-16T08:49:59;101575.22;;;21.15
64947;BMP280;51469;52.150;4.682;2022-10-16T08:52:29;101571.88;;;21.20
64947;BMP280;51469;52.150;4.682;2022-10-16T08:54:56;101589.47;;;21.17
64947;BMP280;51469;52.150;4.682;2022-10-16T08:57:24;101574.75;;;21.16
64947;BMP280;51469;52.150;4.682;2022-10-16T08:59:57;101582.53;;;21.41
64947;BMP280;51469;52.150;4.682;2022-10-16T09:02:35;101582.09;;;22.03
64947;BMP280;51469;52.150;4.682;2022-10-16T09:08:05;101597.09;;;23.15
64947;BMP280;51469;52.150;4.682;2022-10-16T09:13:21;101600.72;;;23.50
64947;BMP280;51469;52.150;4.682;2022-10-16T09:15:56;101613.97;;;23.24
64947;BMP280;51469;52.150;4.682;2022-10-16T09:21:40;101608.97;;;23.66
64947;BMP280;51469;52.150;4.682;2022-10-16T09:24:15;101596.47;;;23.20
64947;BMP280;51469;52.150;4.682;2022-10-16T09:26:42;101607.03;;;23.16
64947;BMP280;51469;52.150;4.682;2022-10-16T09:29:12;101603.56;;;23.00
64947;BMP280;51469;52.150;4.682;2022-10-16T09:31:38;101603.22;;;22.86
64947;BMP280;51469;52.150;4.682;2022-10-16T09:34:04;101610.81;;;22.73
64947;BMP280;51469;52.150;4.682;2022-10-16T09:36:44;101599.38;;;22.79
64947;BMP280;51469;52.150;4.682;2022-10-16T09:39:11;101617.22;;;22.86
64947;BMP280;51469;52.150;4.682;2022-10-16T09:41:39;101607.22;;;22.84
64947;BMP280;51469;52.150;4.682;2022-10-16T09:44:29;101620.34;;;23.12
64947;BMP280;51469;52.150;4.682;2022-10-16T09:47:18;101613.84;;;23.28
64947;BMP280;51469;52.150;4.682;2022-10-16T09:50:22;101616.22;;;23.29
64947;BMP280;51469;52.150;4.682;2022-10-16T09:52:48;101627.19;;;23.36
64947;BMP280;51469;52.150;4.682;2022-10-16T09:55:16;101630.31;;;23.38
64947;BMP280;51469;52.150;4.682;2022-10-16T09:57:52;101626.38;;;23.36
64947;BMP280;51469;52.150;4.682;2022-10-16T10:00:19;101625.63;;;23.23
64947;BMP280;51469;52.150;4.682;2022-10-16T10:02:45;101629.19;;;22.98
64947;BMP280;51469;52.150;4.682;2022-10-16T10:05:22;101638.56;;;22.79
64947;BMP280;51469;52.150;4.682;2022-10-16T10:08:13;101636.88;;;22.70
64947;BMP280;51469;52.150;4.682;2022-10-16T10:10:42;101634.97;;;22.67
64947;BMP280;51469;52.150;4.682;2022-10-16T10:13:19;101637.09;;;22.63
64947;BMP280;51469;52.150;4.682;2022-10-16T10:15:45;101634.88;;;22.70
64947;BMP280;51469;52.150;4.682;2022-10-16T10:18:21;101646.84;;;22.71
64947;BMP280;51469;52.150;4.682;2022-10-16T10:20:59;101649.13;;;22.76
64947;BMP280;51469;52.150;4.682;2022-10-16T10:23:27;101646.19;;;22.91
64947;BMP280;51469;52.150;4.682;2022-10-16T10:31:32;101649.00;;;24.00
64947;BMP280;51469;52.150;4.682;2022-10-16T10:36:36;101661.66;;;24.26
64947;BMP280;51469;52.150;4.682;2022-10-16T10:39:16;101656.28;;;24.19
64947;BMP280;51469;52.150;4.682;2022-10-16T10:50:10;101675.44;;;24.85
64947;BMP280;51469;52.150;4.682;2022-10-16T10:55:46;101680.94;;;24.67
64947;BMP280;51469;52.150;4.682;2022-10-16T11:01:30;101685.94;;;24.20
64947;BMP280;51469;52.150;4.682;2022-10-16T11:04:14;101685.41;;;24.34
64947;BMP280;51469;52.150;4.682;2022-10-16T11:06:47;101692.47;;;24.17
64947;BMP280;51469;52.150;4.682;2022-10-16T11:09:23;101680.97;;;24.24
64947;BMP280;51469;52.150;4.682;2022-10-16T11:12:05;101699.75;;;24.36
64947;BMP280;51469;52.150;4.682;2022-10-16T11:15:07;101697.06;;;24.45
64947;BMP280;51469;52.150;4.682;2022-10-16T11:17:42;101701.03;;;24.35
64947;BMP280;51469;52.150;4.682;2022-10-16T11:20:13;101687.84;;;24.45
64947;BMP280;51469;52.150;4.682;2022-10-16T11:22:45;101688.41;;;24.40
64947;BMP280;51469;52.150;4.682;2022-10-16T11:27:53;101699.91;;;24.54
64947;BMP280;51469;52.150;4.682;2022-10-16T11:30:34;101699.25;;;24.50
64947;BMP280;51469;52.150;4.682;2022-10-16T11:36:23;101718.03;;;24.62
64947;BMP280;51469;52.150;4.682;2022-10-16T11:39:11;101717.66;;;24.51
64947;BMP280;51469;52.150;4.682;2022-10-16T11:41:55;101715.69;;;24.39
64947;BMP280;51469;52.150;4.682;2022-10-16T11:49:57;101722.22;;;24.79
64947;BMP280;51469;52.150;4.682;2022-10-16T11:52:30;101725.03;;;24.79
64947;BMP280;51469;52.150;4.682;2022-10-16T11:55:05;101722.22;;;24.79
64947;BMP280;51469;52.150;4.682;2022-10-16T11:57:51;101722.53;;;24.81
64947;BMP280;51469;52.150;4.682;2022-10-16T12:00:28;101734.19;;;25.01
64947;BMP280;51469;52.150;4.682;2022-10-16T12:08:19;101732.69;;;25.09
64947;BMP280;51469;52.150;4.682;2022-10-16T12:10:46;101734.88;;;25.14
64947;BMP280;51469;52.150;4.682;2022-10-16T12:18:30;101741.47;;;25.20
64947;BMP280;51469;52.150;4.682;2022-10-16T12:20:59;101745.53;;;25.19
64947;BMP280;51469;52.150;4.682;2022-10-16T12:23:29;101739.16;;;24.97
64947;BMP280;51469;52.150;4.682;2022-10-16T12:25:57;101748.28;;;25.10
64947;BMP280;51469;52.150;4.682;2022-10-16T12:28:28;101754.84;;;25.07
64947;BMP280;51469;52.150;4.682;2022-10-16T12:30:56;101746.34;;;24.98
64947;BMP280;51469;52.150;4.682;2022-10-16T12:33:25;101759.16;;;24.99
64947;BMP280;51469;52.150;4.682;2022-10-16T12:35:52;101753.53;;;24.99
64947;BMP280;51469;52.150;4.682;2022-10-16T12:38:20;101748.25;;;25.01
64947;BMP280;51469;52.150;4.682;2022-10-16T12:40:55;101746.19;;;25.02
64947;BMP280;51469;52.150;4.682;2022-10-16T12:43:24;101757.19;;;24.87
64947;BMP280;51469;52.150;4.682;2022-10-16T12:46:02;101764.84;;;24.65
64947;BMP280;51469;52.150;4.682;2022-10-16T12:48:29;101756.00;;;24.67
64947;BMP280;51469;52.150;4.682;2022-10-16T12:50:55;101756.41;;;24.65
64947;BMP280;51469;52.150;4.682;2022-10-16T12:53:23;101754.84;;;24.43
64947;BMP280;51469;52.150;4.682;2022-10-16T12:56:09;101768.28;;;24.48
64947;BMP280;51469;52.150;4.682;2022-10-16T12:59:16;101768.91;;;24.30
64947;BMP280;51469;52.150;4.682;2022-10-16T13:10:11;101778.50;;;24.08
64947;BMP280;51469;52.150;4.682;2022-10-16T13:13:05;101770.97;;;24.17
64947;BMP280;51469;52.150;4.682;2022-10-16T13:20:59;101779.03;;;24.15
64947;BMP280;51469;52.150;4.682;2022-10-16T13:23:44;101789.75;;;24.29
64947;BMP280;51469;52.150;4.682;2022-10-16T13:26:23;101797.94;;;24.36
64947;BMP280;51469;52.150;4.682;2022-10-16T13:28:51;101804.56;;;24.42
64947;BMP280;51469;52.150;4.682;2022-10-16T13:31:23;101807.13;;;24.49
64947;BMP280;51469;52.150;4.682;2022-10-16T13:33:52;101807.16;;;24.37
64947;BMP280;51469;52.150;4.682;2022-10-16T13:36:25;101809.13;;;24.49
64947;BMP280;51469;52.150;4.682;2022-10-16T13:39:11;101807.56;;;24.48
64947;BMP280;51469;52.150;4.682;2022-10-16T13:41:38;101820.09;;;24.56
64947;BMP280;51469;52.150;4.682;2022-10-16T13:44:04;101813.97;;;24.48
64947;BMP280;51469;52.150;4.682;2022-10-16T13:46:30;101817.34;;;24.43
64947;BMP280;51469;52.150;4.682;2022-10-16T13:49:12;101819.00;;;24.53
64947;BMP280;51469;52.150;4.682;2022-10-16T13:51:38;101819.75;;;24.54
64947;BMP280;51469;52.150;4.682;2022-10-16T13:54:03;101807.69;;;24.44
64947;BMP280;51469;52.150;4.682;2022-10-16T13:56:31;101808.34;;;24.48
64947;BMP280;51469;52.150;4.682;2022-10-16T13:59:05;101819.00;;;24.53
64947;BMP280;51469;52.150;4.682;2022-10-16T14:01:41;101813.97;;;24.48
64947;BMP280;51469;52.150;4.682;2022-10-16T14:04:10;101819.59;;;24.48
64947;BMP280;51469;52.150;4.682;2022-10-16T14:06:41;101810.56;;;24.53
64947;BMP280;51469;52.150;4.682;2022-10-16T14:09:29;101804.19;;;24.53
64947;BMP280;51469;52.150;4.682;2022-10-16T14:12:08;101797.13;;;24.48
64947;BMP280;51469;52.150;4.682;2022-10-16T14:14:47;101802.16;;;24.53
64947;BMP280;51469;52.150;4.682;2022-10-16T14:17:23;101801.16;;;24.47
64947;BMP280;51469;52.150;4.682;2022-10-16T14:19:51;101796.69;;;24.37
64947;BMP280;51469;52.150;4.682;2022-10-16T14:22:27;101805.59;;;24.36
64947;BMP280;51469;52.150;4.682;2022-10-16T14:24:53;101806.94;;;24.31
64947;BMP280;51469;52.150;4.682;2022-10-16T14:30:17;101811.22;;;24.23
64947;BMP280;51469;52.150;4.682;2022-10-16T14:32:57;101811.13;;;24.14
64947;BMP280;51469;52.150;4.682;2022-10-16T14:35:34;101812.41;;;24.01
64947;BMP280;51469;52.150;4.682;2022-10-16T14:38:02;101817.66;;;23.86
64947;BMP280;51469;52.150;4.682;2022-10-16T14:40:30;101814.53;;;23.84
64947;BMP280;51469;52.150;4.682;2022-10-16T14:42:57;101815.41;;;23.81
64947;BMP280;51469;52.150;4.682;2022-10-16T14:45:26;101808.03;;;23.87
64947;BMP280;51469;52.150;4.682;2022-10-16T14:47:54;101827.09;;;23.92
64947;BMP280;51469;52.150;4.682;2022-10-16T14:50:21;101803.97;;;23.88
64947;BMP280;51469;52.150;4.682;2022-10-16T14:52:47;101813.94;;;24.02
64947;BMP280;51469;52.150;4.682;2022-10-16T14:55:12;101811.94;;;23.90
64947;BMP280;51469;52.150;4.682;2022-10-16T14:57:38;101811.16;;;23.89
64947;BMP280;51469;52.150;4.682;2022-10-16T15:00:16;101817.44;;;23.93
64947;BMP280;51469;52.150;4.682;2022-10-16T15:02:42;101817.19;;;23.88
64947;BMP280;51469;52.150;4.682;2022-10-16T15:05:20;101813.06;;;23.80
64947;BMP280;51469;52.150;4.682;2022-10-16T15:07:47;101821.59;;;23.76
64947;BMP280;51469;52.150;4.682;2022-10-16T15:10:15;101819.66;;;23.73
64947;BMP280;51469;52.150;4.682;2022-10-16T15:12:41;101816.44;;;23.62
64947;BMP280;51469;52.150;4.682;2022-10-16T15:15:23;101817.00;;;23.57
64947;BMP280;51469;52.150;4.682;2022-10-16T15:17:51;101814.94;;;23.45
64947;BMP280;51469;52.150;4.682;2022-10-16T15:20:23;101811.47;;;23.41
64947;BMP280;51469;52.150;4.682;2022-10-16T15:22:49;101824.00;;;23.37
64947;BMP280;51469;52.150;4.682;2022-10-16T15:27:59;101822.06;;;23.21
64947;BMP280;51469;52.150;4.682;2022-10-16T15:30:26;101816.78;;;23.11
64947;BMP280;51469;52.150;4.682;2022-10-16T15:32:51;101817.78;;;23.04
64947;BMP280;51469;52.150;4.682;2022-10-16T15:35:17;101804.31;;;22.99
64947;BMP280;51469;52.150;4.682;2022-10-16T15:37:42;101811.69;;;22.93